sensor_id;sensor_type;location;lat;lon;timestamp;P1;durP1;ratioP1;P2;durP2;ratioP2
68886;SDS011;55925;51.764;6.402;2023-05-07T00:00:01;14.70;;;9.60;;
68886;SDS011;55925;51.764;6.402;2023-05-07T00:02:32;17.10;;;10.00;;
68886;SDS011;55925;51.764;6.402;2023-05-07T00:04:57;13.52;;;9.70;;
68886;SDS011;55925;51.764;6.402;2023-05-07T00:07:23;14.18;;;9.00;;
68886;SDS011;55925;51.764;6.402;2023-05-07T00:09:50;12.55;;;8.65;;
68886;SDS011;55925;51.764;6.402;2023-05-07T00:12:16;14.32;;;8.88;;
68886;SDS011;55925;51.764;6.402;2023-05-07T00:14:42;13.10;;;8.38;;
68886;SDS011;55925;51.764;6.402;2023-05-07T00:17:08;13.90;;;7.82;;
68886;SDS011;55925;51.764;6.402;2023-05-07T00:19:34;13.98;;;8.48;;
68886;SDS011;55925;51.764;6.402;2023-05-07T00:22:00;11.52;;;7.13;;
68886;SDS011;55925;51.764;6.402;2023-05-07T00:24:26;12.32;;;7.50;;
68886;SDS011;55925;51.764;6.402;2023-05-07T00:26:52;12.43;;;7.45;;
68886;SDS011;55925;51.764;6.402;2023-05-07T00:29:18;12.13;;;7.88;;
68886;SDS011;55925;51.764;6.402;2023-05-07T00:31:44;17.05;;;9.18;;
68886;SDS011;55925;51.764;6.402;2023-05-07T00:34:10;12.65;;;8.30;;
68886;SDS011;55925;51.764;6.402;2023-05-07T00:36:36;12.23;;;8.45;;
68886;SDS011;55925;51.764;6.402;2023-05-07T00:39:02;14.77;;;8.07;;
68886;SDS011;55925;51.764;6.402;2023-05-07T00:41:29;12.43;;;7.80;;
68886;SDS011;55925;51.764;6.402;2023-05-07T00:43:57;12.82;;;8.30;;
68886;SDS011;55925;51.764;6.402;2023-05-07T00:46:23;12.13;;;8.00;;
68886;SDS011;55925;51.764;6.402;2023-05-07T00:48:50;12.60;;;7.93;;
68886;SDS011;55925;51.764;6.402;2023-05-07T00:51:17;13.30;;;8.60;;
68886;SDS011;55925;51.764;6.402;2023-05-07T00:53:43;12.98;;;8.13;;
68886;SDS011;55925;51.764;6.402;2023-05-07T00:56:09;13.63;;;8.48;;
68886;SDS011;55925;51.764;6.402;2023-05-07T00:58:36;12.32;;;7.72;;
68886;SDS011;55925;51.764;6.402;2023-05-07T01:01:02;11.48;;;7.43;;
68886;SDS011;55925;51.764;6.402;2023-05-07T01:03:28;13.73;;;8.40;;
68886;SDS011;55925;51.764;6.402;2023-05-07T01:05:54;14.38;;;7.72;;
68886;SDS011;55925;51.764;6.402;2023-05-07T01:08:22;13.70;;;8.05;;
68886;SDS011;55925;51.764;6.402;2023-05-07T01:10:49;14.07;;;8.27;;
68886;SDS011;55925;51.764;6.402;2023-05-07T01:13:17;13.90;;;8.23;;
68886;SDS011;55925;51.764;6.402;2023-05-07T01:15:43;14.23;;;7.35;;
68886;SDS011;55925;51.764;6.402;2023-05-07T01:18:09;11.73;;;7.40;;
68886;SDS011;55925;51.764;6.402;2023-05-07T01:20:35;14.13;;;9.25;;
68886;SDS011;55925;51.764;6.402;2023-05-07T01:23:01;12.38;;;7.97;;
68886;SDS011;55925;51.764;6.402;2023-05-07T01:25:28;12.88;;;7.95;;
68886;SDS011;55925;51.764;6.402;2023-05-07T01:27:55;11.13;;;7.40;;
68886;SDS011;55925;51.764;6.402;2023-05-07T01:30:21;13.50;;;8.13;;
68886;SDS011;55925;51.764;6.402;2023-05-07T01:32:49;12.43;;;8.50;;
68886;SDS011;55925;51.764;6.402;2023-05-07T01:35:18;12.85;;;8.07;;
68886;SDS011;55925;51.764;6.402;2023-05-07T01:37:45;13.50;;;8.15;;
68886;SDS011;55925;51.764;6.402;2023-05-07T01:40:12;16.08;;;9.18;;
68886;SDS011;55925;51.764;6.402;2023-05-07T01:42:38;13.98;;;8.77;;
68886;SDS011;55925;51.764;6.402;2023-05-07T01:45:04;12.90;;;8.38;;
68886;SDS011;55925;51.764;6.402;2023-05-07T01:47:31;14.43;;;7.78;;
68886;SDS011;55925;51.764;6.402;2023-05-07T01:49:57;14.40;;;9.13;;
68886;SDS011;55925;51.764;6.402;2023-05-07T01:52:23;13.00;;;8.77;;
68886;SDS011;55925;51.764;6.402;2023-05-07T01:54:50;13.80;;;8.13;;
68886;SDS011;55925;51.764;6.402;2023-05-07T01:57:16;13.38;;;8.32;;
68886;SDS011;55925;51.764;6.402;2023-05-07T01:59:42;16.33;;;9.73;;
68886;SDS011;55925;51.764;6.402;2023-05-07T02:02:08;12.90;;;8.55;;
68886;SDS011;55925;51.764;6.402;2023-05-07T02:04:34;16.05;;;9.95;;
68886;SDS011;55925;51.764;6.402;2023-05-07T02:07:00;14.27;;;9.60;;
68886;SDS011;55925;51.764;6.402;2023-05-07T02:09:26;16.80;;;11.02;;
68886;SDS011;55925;51.764;6.402;2023-05-07T02:11:52;15.75;;;9.55;;
68886;SDS011;55925;51.764;6.402;2023-05-07T02:14:18;18.50;;;11.15;;
68886;SDS011;55925;51.764;6.402;2023-05-07T02:16:45;19.17;;;11.02;;
68886;SDS011;55925;51.764;6.402;2023-05-07T02:19:11;18.20;;;11.10;;
68886;SDS011;55925;51.764;6.402;2023-05-07T02:21:37;19.45;;;11.90;;
68886;SDS011;55925;51.764;6.402;2023-05-07T02:24:03;18.25;;;11.07;;
68886;SDS011;55925;51.764;6.402;2023-05-07T02:26:29;22.05;;;13.52;;
68886;SDS011;55925;51.764;6.402;2023-05-07T02:28:55;22.13;;;13.45;;
68886;SDS011;55925;51.764;6.402;2023-05-07T02:31:21;25.35;;;13.38;;
68886;SDS011;55925;51.764;6.402;2023-05-07T02:33:47;24.02;;;15.13;;
68886;SDS011;55925;51.764;6.402;2023-05-07T02:36:12;20.42;;;12.80;;
68886;SDS011;55925;51.764;6.402;2023-05-07T02:38:39;21.98;;;13.02;;
68886;SDS011;55925;51.764;6.402;2023-05-07T02:41:04;21.40;;;13.32;;
68886;SDS011;55925;51.764;6.402;2023-05-07T02:43:30;22.88;;;14.20;;
68886;SDS011;55925;51.764;6.402;2023-05-07T02:46:00;24.10;;;14.68;;
68886;SDS011;55925;51.764;6.402;2023-05-07T02:48:26;26.48;;;14.50;;
68886;SDS011;55925;51.764;6.402;2023-05-07T02:50:52;25.17;;;14.75;;
68886;SDS011;55925;51.764;6.402;2023-05-07T02:53:18;24.58;;;14.55;;
68886;SDS011;55925;51.764;6.402;2023-05-07T02:55:44;23.27;;;14.20;;
68886;SDS011;55925;51.764;6.402;2023-05-07T02:58:10;23.08;;;13.73;;
68886;SDS011;55925;51.764;6.402;2023-05-07T03:00:36;24.02;;;15.95;;
68886;SDS011;55925;51.764;6.402;2023-05-07T03:03:02;25.25;;;15.15;;
68886;SDS011;55925;51.764;6.402;2023-05-07T03:05:28;24.27;;;14.88;;
68886;SDS011;55925;51.764;6.402;2023-05-07T03:07:54;27.50;;;16.52;;
68886;SDS011;55925;51.764;6.402;2023-05-07T03:10:20;27.88;;;15.82;;
68886;SDS011;55925;51.764;6.402;2023-05-07T03:12:46;25.83;;;15.07;;
68886;SDS011;55925;51.764;6.402;2023-05-07T03:15:12;28.08;;;15.77;;
68886;SDS011;55925;51.764;6.402;2023-05-07T03:17:38;27.02;;;15.73;;
68886;SDS011;55925;51.764;6.402;2023-05-07T03:20:04;29.95;;;17.15;;
68886;SDS011;55925;51.764;6.402;2023-05-07T03:22:31;25.15;;;15.35;;
68886;SDS011;55925;51.764;6.402;2023-05-07T03:24:57;29.58;;;17.73;;
68886;SDS011;55925;51.764;6.402;2023-05-07T03:27:23;28.00;;;16.15;;
68886;SDS011;55925;51.764;6.402;2023-05-07T03:29:49;29.27;;;16.85;;
68886;SDS011;55925;51.764;6.402;2023-05-07T03:32:15;27.98;;;16.75;;
68886;SDS011;55925;51.764;6.402;2023-05-07T03:34:41;29.35;;;15.93;;
68886;SDS011;55925;51.764;6.402;2023-05-07T03:37:07;25.85;;;15.68;;
68886;SDS011;55925;51.764;6.402;2023-05-07T03:39:33;24.45;;;14.77;;
68886;SDS011;55925;51.764;6.402;2023-05-07T03:41:59;24.75;;;15.15;;
68886;SDS011;55925;51.764;6.402;2023-05-07T03:44:26;26.20;;;14.70;;
68886;SDS011;55925;51.764;6.402;2023-05-07T03:46:52;23.75;;;14.82;;
68886;SDS011;55925;51.764;6.402;2023-05-07T03:49:17;28.75;;;16.15;;
68886;SDS011;55925;51.764;6.402;2023-05-07T03:51:43;25.15;;;15.10;;
68886;SDS011;55925;51.764;6.402;2023-05-07T03:54:10;25.90;;;14.93;;
68886;SDS011;55925;51.764;6.402;2023-05-07T03:56:36;28.65;;;16.08;;
68886;SDS011;55925;51.764;6.402;2023-05-07T03:59:02;31.00;;;16.25;;
68886;SDS011;55925;51.764;6.402;2023-05-07T04:01:28;30.02;;;16.10;;
68886;SDS011;55925;51.764;6.402;2023-05-07T04:03:54;27.27;;;15.27;;
68886;SDS011;55925;51.764;6.402;2023-05-07T04:06:21;25.25;;;15.68;;
68886;SDS011;55925;51.764;6.402;2023-05-07T04:08:47;27.70;;;15.52;;
68886;SDS011;55925;51.764;6.402;2023-05-07T04:11:13;25.60;;;15.52;;
68886;SDS011;55925;51.764;6.402;2023-05-07T04:13:39;26.30;;;15.68;;
68886;SDS011;55925;51.764;6.402;2023-05-07T04:16:05;28.17;;;15.45;;
68886;SDS011;55925;51.764;6.402;2023-05-07T04:18:31;23.75;;;14.27;;
68886;SDS011;55925;51.764;6.402;2023-05-07T04:20:57;23.00;;;13.77;;
68886;SDS011;55925;51.764;6.402;2023-05-07T04:23:23;25.38;;;14.65;;
68886;SDS011;55925;51.764;6.402;2023-05-07T04:25:49;25.83;;;14.20;;
68886;SDS011;55925;51.764;6.402;2023-05-07T04:28:15;22.70;;;14.50;;
68886;SDS011;55925;51.764;6.402;2023-05-07T04:30:41;21.98;;;13.60;;
68886;SDS011;55925;51.764;6.402;2023-05-07T04:33:07;24.20;;;15.02;;
68886;SDS011;55925;51.764;6.402;2023-05-07T04:35:33;24.58;;;14.50;;
68886;SDS011;55925;51.764;6.402;2023-05-07T04:37:59;23.83;;;14.10;;
68886;SDS011;55925;51.764;6.402;2023-05-07T04:40:26;21.17;;;12.95;;
68886;SDS011;55925;51.764;6.402;2023-05-07T04:42:52;24.13;;;14.18;;
68886;SDS011;55925;51.764;6.402;2023-05-07T04:45:18;28.50;;;15.52;;
68886;SDS011;55925;51.764;6.402;2023-05-07T04:47:44;22.45;;;13.93;;
68886;SDS011;55925;51.764;6.402;2023-05-07T04:50:10;24.48;;;13.95;;
68886;SDS011;55925;51.764;6.402;2023-05-07T04:52:36;20.92;;;13.25;;
68886;SDS011;55925;51.764;6.402;2023-05-07T04:55:02;22.52;;;13.55;;
68886;SDS011;55925;51.764;6.402;2023-05-07T04:57:29;25.17;;;13.82;;
68886;SDS011;55925;51.764;6.402;2023-05-07T04:59:55;24.65;;;14.30;;
68886;SDS011;55925;51.764;6.402;2023-05-07T05:02:21;23.60;;;14.10;;
68886;SDS011;55925;51.764;6.402;2023-05-07T05:04:47;22.40;;;13.27;;
68886;SDS011;55925;51.764;6.402;2023-05-07T05:07:13;21.38;;;13.43;;
68886;SDS011;55925;51.764;6.402;2023-05-07T05:09:39;22.50;;;13.73;;
68886;SDS011;55925;51.764;6.402;2023-05-07T05:12:05;20.65;;;11.57;;
68886;SDS011;55925;51.764;6.402;2023-05-07T05:14:32;21.33;;;12.15;;
68886;SDS011;55925;51.764;6.402;2023-05-07T05:16:58;20.77;;;13.15;;
68886;SDS011;55925;51.764;6.402;2023-05-07T05:19:24;21.27;;;13.63;;
68886;SDS011;55925;51.764;6.402;2023-05-07T05:21:50;22.27;;;12.90;;
68886;SDS011;55925;51.764;6.402;2023-05-07T05:24:16;21.77;;;13.15;;
68886;SDS011;55925;51.764;6.402;2023-05-07T05:26:42;20.00;;;12.02;;
68886;SDS011;55925;51.764;6.402;2023-05-07T05:29:08;21.40;;;13.00;;
68886;SDS011;55925;51.764;6.402;2023-05-07T05:31:35;21.35;;;12.65;;
68886;SDS011;55925;51.764;6.402;2023-05-07T05:34:01;24.10;;;14.23;;
68886;SDS011;55925;51.764;6.402;2023-05-07T05:36:28;21.65;;;13.30;;
68886;SDS011;55925;51.764;6.402;2023-05-07T05:38:55;22.98;;;13.85;;
68886;SDS011;55925;51.764;6.402;2023-05-07T05:41:21;21.08;;;13.02;;
68886;SDS011;55925;51.764;6.402;2023-05-07T05:43:48;22.20;;;13.50;;
68886;SDS011;55925;51.764;6.402;2023-05-07T05:46:14;21.35;;;13.02;;
68886;SDS011;55925;51.764;6.402;2023-05-07T05:48:40;22.60;;;13.50;;
68886;SDS011;55925;51.764;6.402;2023-05-07T05:51:06;20.50;;;12.63;;
68886;SDS011;55925;51.764;6.402;2023-05-07T05:53:32;21.50;;;13.52;;
68886;SDS011;55925;51.764;6.402;2023-05-07T05:55:58;19.92;;;12.75;;
68886;SDS011;55925;51.764;6.402;2023-05-07T05:58:24;19.92;;;13.05;;
68886;SDS011;55925;51.764;6.402;2023-05-07T06:00:50;21.48;;;12.52;;
68886;SDS011;55925;51.764;6.402;2023-05-07T06:03:17;19.33;;;12.10;;
68886;SDS011;55925;51.764;6.402;2023-05-07T06:05:43;18.63;;;12.05;;
68886;SDS011;55925;51.764;6.402;2023-05-07T06:08:09;17.65;;;11.50;;
68886;SDS011;55925;51.764;6.402;2023-05-07T06:10:36;18.90;;;11.80;;
68886;SDS011;55925;51.764;6.402;2023-05-07T06:13:02;18.65;;;10.95;;
68886;SDS011;55925;51.764;6.402;2023-05-07T06:15:28;18.65;;;11.88;;
68886;SDS011;55925;51.764;6.402;2023-05-07T06:17:54;18.00;;;10.95;;
68886;SDS011;55925;51.764;6.402;2023-05-07T06:20:22;17.70;;;11.40;;
68886;SDS011;55925;51.764;6.402;2023-05-07T06:22:48;17.25;;;10.38;;
68886;SDS011;55925;51.764;6.402;2023-05-07T06:25:14;16.35;;;10.13;;
68886;SDS011;55925;51.764;6.402;2023-05-07T06:27:40;17.15;;;10.23;;
68886;SDS011;55925;51.764;6.402;2023-05-07T06:30:09;17.08;;;10.63;;
68886;SDS011;55925;51.764;6.402;2023-05-07T06:32:36;14.35;;;10.35;;
68886;SDS011;55925;51.764;6.402;2023-05-07T06:35:02;15.73;;;10.07;;
68886;SDS011;55925;51.764;6.402;2023-05-07T06:37:28;16.33;;;10.55;;
68886;SDS011;55925;51.764;6.402;2023-05-07T06:39:54;14.77;;;9.93;;
68886;SDS011;55925;51.764;6.402;2023-05-07T06:42:20;15.00;;;9.52;;
68886;SDS011;55925;51.764;6.402;2023-05-07T06:44:46;16.75;;;9.90;;
68886;SDS011;55925;51.764;6.402;2023-05-07T06:47:12;14.10;;;8.75;;
68886;SDS011;55925;51.764;6.402;2023-05-07T06:49:38;14.20;;;8.77;;
68886;SDS011;55925;51.764;6.402;2023-05-07T06:52:04;14.20;;;8.75;;
68886;SDS011;55925;51.764;6.402;2023-05-07T06:54:30;16.98;;;8.40;;
68886;SDS011;55925;51.764;6.402;2023-05-07T06:56:56;12.52;;;8.15;;
68886;SDS011;55925;51.764;6.402;2023-05-07T06:59:23;14.00;;;8.23;;
68886;SDS011;55925;51.764;6.402;2023-05-07T07:01:49;13.32;;;9.25;;
68886;SDS011;55925;51.764;6.402;2023-05-07T07:04:15;12.77;;;8.10;;
68886;SDS011;55925;51.764;6.402;2023-05-07T07:06:41;12.68;;;8.10;;
68886;SDS011;55925;51.764;6.402;2023-05-07T07:09:07;14.10;;;8.40;;
68886;SDS011;55925;51.764;6.402;2023-05-07T07:11:33;13.18;;;7.78;;
68886;SDS011;55925;51.764;6.402;2023-05-07T07:13:59;11.30;;;7.53;;
68886;SDS011;55925;51.764;6.402;2023-05-07T07:16:25;10.32;;;6.72;;
68886;SDS011;55925;51.764;6.402;2023-05-07T07:18:51;14.07;;;7.72;;
68886;SDS011;55925;51.764;6.402;2023-05-07T07:21:17;12.70;;;7.28;;
68886;SDS011;55925;51.764;6.402;2023-05-07T07:23:43;11.52;;;7.63;;
68886;SDS011;55925;51.764;6.402;2023-05-07T07:26:09;11.70;;;7.45;;
68886;SDS011;55925;51.764;6.402;2023-05-07T07:28:41;12.75;;;7.70;;
68886;SDS011;55925;51.764;6.402;2023-05-07T07:31:07;12.43;;;8.43;;
68886;SDS011;55925;51.764;6.402;2023-05-07T07:33:33;12.43;;;7.45;;
68886;SDS011;55925;51.764;6.402;2023-05-07T07:35:59;10.50;;;6.90;;
68886;SDS011;55925;51.764;6.402;2023-05-07T07:38:25;11.23;;;7.28;;
68886;SDS011;55925;51.764;6.402;2023-05-07T07:40:51;12.80;;;7.38;;
68886;SDS011;55925;51.764;6.402;2023-05-07T07:43:17;9.98;;;6.70;;
68886;SDS011;55925;51.764;6.402;2023-05-07T07:45:43;12.52;;;7.82;;
68886;SDS011;55925;51.764;6.402;2023-05-07T07:48:09;12.10;;;7.70;;
68886;SDS011;55925;51.764;6.402;2023-05-07T07:50:35;11.55;;;6.72;;
68886;SDS011;55925;51.764;6.402;2023-05-07T07:53:02;10.77;;;6.45;;
68886;SDS011;55925;51.764;6.402;2023-05-07T07:55:28;10.85;;;6.20;;
68886;SDS011;55925;51.764;6.402;2023-05-07T07:57:54;9.65;;;6.35;;
68886;SDS011;55925;51.764;6.402;2023-05-07T08:00:20;12.00;;;6.53;;
68886;SDS011;55925;51.764;6.402;2023-05-07T08:02:46;11.15;;;6.32;;
68886;SDS011;55925;51.764;6.402;2023-05-07T08:05:12;9.88;;;6.30;;
68886;SDS011;55925;51.764;6.402;2023-05-07T08:07:38;12.40;;;6.75;;
68886;SDS011;55925;51.764;6.402;2023-05-07T08:10:04;9.93;;;6.25;;
68886;SDS011;55925;51.764;6.402;2023-05-07T08:12:30;8.73;;;5.50;;
68886;SDS011;55925;51.764;6.402;2023-05-07T08:14:56;12.07;;;6.53;;
68886;SDS011;55925;51.764;6.402;2023-05-07T08:17:22;9.82;;;5.97;;
68886;SDS011;55925;51.764;6.402;2023-05-07T08:19:48;9.90;;;6.22;;
68886;SDS011;55925;51.764;6.402;2023-05-07T08:22:14;11.80;;;6.50;;
68886;SDS011;55925;51.764;6.402;2023-05-07T08:24:40;10.80;;;6.38;;
68886;SDS011;55925;51.764;6.402;2023-05-07T08:27:06;9.45;;;5.57;;
68886;SDS011;55925;51.764;6.402;2023-05-07T08:29:32;8.70;;;5.25;;
68886;SDS011;55925;51.764;6.402;2023-05-07T08:31:58;8.38;;;5.22;;
68886;SDS011;55925;51.764;6.402;2023-05-07T08:34:24;10.00;;;5.28;;
68886;SDS011;55925;51.764;6.402;2023-05-07T08:36:50;9.88;;;6.03;;
68886;SDS011;55925;51.764;6.402;2023-05-07T08:39:16;11.50;;;5.78;;
68886;SDS011;55925;51.764;6.402;2023-05-07T08:41:45;9.75;;;5.57;;
68886;SDS011;55925;51.764;6.402;2023-05-07T08:44:15;9.10;;;5.63;;
68886;SDS011;55925;51.764;6.402;2023-05-07T08:46:43;10.52;;;6.43;;
68886;SDS011;55925;51.764;6.402;2023-05-07T08:49:11;9.05;;;5.88;;
68886;SDS011;55925;51.764;6.402;2023-05-07T08:51:37;9.65;;;6.18;;
68886;SDS011;55925;51.764;6.402;2023-05-07T08:54:03;8.90;;;5.60;;
68886;SDS011;55925;51.764;6.402;2023-05-07T08:56:30;8.45;;;4.88;;
68886;SDS011;55925;51.764;6.402;2023-05-07T08:58:56;7.68;;;4.97;;
68886;SDS011;55925;51.764;6.402;2023-05-07T09:01:23;9.70;;;5.35;;
68886;SDS011;55925;51.764;6.402;2023-05-07T09:03:50;8.45;;;5.05;;
68886;SDS011;55925;51.764;6.402;2023-05-07T09:06:17;8.13;;;4.63;;
68886;SDS011;55925;51.764;6.402;2023-05-07T09:08:49;7.93;;;4.88;;
68886;SDS011;55925;51.764;6.402;2023-05-07T09:11:15;7.55;;;4.40;;
68886;SDS011;55925;51.764;6.402;2023-05-07T09:13:42;6.53;;;3.60;;
68886;SDS011;55925;51.764;6.402;2023-05-07T09:16:11;6.95;;;4.18;;
68886;SDS011;55925;51.764;6.402;2023-05-07T09:18:44;7.88;;;5.15;;
68886;SDS011;55925;51.764;6.402;2023-05-07T09:21:10;8.20;;;4.95;;
68886;SDS011;55925;51.764;6.402;2023-05-07T09:23:37;8.18;;;4.75;;
68886;SDS011;55925;51.764;6.402;2023-05-07T09:26:03;7.30;;;4.22;;
68886;SDS011;55925;51.764;6.402;2023-05-07T09:28:32;6.82;;;4.40;;
68886;SDS011;55925;51.764;6.402;2023-05-07T09:30:58;7.70;;;4.90;;
68886;SDS011;55925;51.764;6.402;2023-05-07T09:33:26;7.03;;;4.43;;
68886;SDS011;55925;51.764;6.402;2023-05-07T09:35:53;5.70;;;3.60;;
68886;SDS011;55925;51.764;6.402;2023-05-07T09:38:19;7.03;;;4.53;;
68886;SDS011;55925;51.764;6.402;2023-05-07T09:40:45;7.03;;;4.00;;
68886;SDS011;55925;51.764;6.402;2023-05-07T09:43:12;6.82;;;4.53;;
68886;SDS011;55925;51.764;6.402;2023-05-07T09:45:38;7.28;;;5.30;;
68886;SDS011;55925;51.764;6.402;2023-05-07T09:48:05;9.00;;;5.43;;
68886;SDS011;55925;51.764;6.402;2023-05-07T09:50:33;7.68;;;4.68;;
68886;SDS011;55925;51.764;6.402;2023-05-07T09:53:02;6.75;;;4.13;;
68886;SDS011;55925;51.764;6.402;2023-05-07T09:55:29;8.02;;;5.10;;
68886;SDS011;55925;51.764;6.402;2023-05-07T09:57:55;7.90;;;4.93;;
68886;SDS011;55925;51.764;6.402;2023-05-07T10:00:21;7.40;;;4.85;;
68886;SDS011;55925;51.764;6.402;2023-05-07T10:02:48;8.73;;;4.88;;
68886;SDS011;55925;51.764;6.402;2023-05-07T10:05:16;8.02;;;4.88;;
68886;SDS011;55925;51.764;6.402;2023-05-07T10:07:42;8.60;;;4.65;;
68886;SDS011;55925;51.764;6.402;2023-05-07T10:10:09;7.57;;;4.35;;
68886;SDS011;55925;51.764;6.402;2023-05-07T10:12:35;9.25;;;5.03;;
68886;SDS011;55925;51.764;6.402;2023-05-07T10:15:06;8.32;;;4.75;;
68886;SDS011;55925;51.764;6.402;2023-05-07T10:17:35;7.82;;;4.68;;
68886;SDS011;55925;51.764;6.402;2023-05-07T10:20:01;7.50;;;4.90;;
68886;SDS011;55925;51.764;6.402;2023-05-07T10:22:28;7.70;;;4.15;;
68886;SDS011;55925;51.764;6.402;2023-05-07T10:24:55;8.18;;;4.78;;
68886;SDS011;55925;51.764;6.402;2023-05-07T10:27:22;8.07;;;4.82;;
68886;SDS011;55925;51.764;6.402;2023-05-07T10:34:56;9.50;;;6.00;;
68886;SDS011;55925;51.764;6.402;2023-05-07T10:37:23;8.65;;;5.70;;
68886;SDS011;55925;51.764;6.402;2023-05-07T10:39:50;9.27;;;5.82;;
68886;SDS011;55925;51.764;6.402;2023-05-07T10:42:16;7.30;;;4.80;;
68886;SDS011;55925;51.764;6.402;2023-05-07T10:44:42;8.77;;;5.43;;
68886;SDS011;55925;51.764;6.402;2023-05-07T10:47:09;8.20;;;4.93;;
68886;SDS011;55925;51.764;6.402;2023-05-07T10:52:11;9.07;;;5.70;;
68886;SDS011;55925;51.764;6.402;2023-05-07T10:54:38;7.72;;;4.78;;
68886;SDS011;55925;51.764;6.402;2023-05-07T10:59:49;9.65;;;5.28;;
68886;SDS011;55925;51.764;6.402;2023-05-07T11:02:16;7.85;;;4.60;;
68886;SDS011;55925;51.764;6.402;2023-05-07T11:04:42;10.18;;;5.85;;
68886;SDS011;55925;51.764;6.402;2023-05-07T11:07:17;9.27;;;5.18;;
68886;SDS011;55925;51.764;6.402;2023-05-07T11:17:32;9.15;;;5.47;;
68886;SDS011;55925;51.764;6.402;2023-05-07T11:19:59;9.13;;;4.90;;
68886;SDS011;55925;51.764;6.402;2023-05-07T11:25:04;8.00;;;5.15;;
68886;SDS011;55925;51.764;6.402;2023-05-07T11:27:31;8.00;;;5.22;;
68886;SDS011;55925;51.764;6.402;2023-05-07T11:29:57;7.75;;;5.15;;
68886;SDS011;55925;51.764;6.402;2023-05-07T11:32:27;8.70;;;5.20;;
68886;SDS011;55925;51.764;6.402;2023-05-07T11:34:57;8.25;;;5.72;;
68886;SDS011;55925;51.764;6.402;2023-05-07T11:37:24;7.18;;;4.43;;
68886;SDS011;55925;51.764;6.402;2023-05-07T11:39:52;7.53;;;4.13;;
68886;SDS011;55925;51.764;6.402;2023-05-07T11:42:32;9.65;;;4.70;;
68886;SDS011;55925;51.764;6.402;2023-05-07T11:44:58;7.28;;;4.70;;
68886;SDS011;55925;51.764;6.402;2023-05-07T11:47:24;8.73;;;5.13;;
68886;SDS011;55925;51.764;6.402;2023-05-07T11:49:51;9.82;;;5.05;;
68886;SDS011;55925;51.764;6.402;2023-05-07T11:52:18;9.55;;;5.25;;
68886;SDS011;55925;51.764;6.402;2023-05-07T11:54:54;7.88;;;5.05;;
68886;SDS011;55925;51.764;6.402;2023-05-07T11:57:20;9.80;;;5.20;;
68886;SDS011;55925;51.764;6.402;2023-05-07T11:59:46;7.60;;;5.05;;
68886;SDS011;55925;51.764;6.402;2023-05-07T12:02:13;9.32;;;5.85;;
68886;SDS011;55925;51.764;6.402;2023-05-07T12:04:40;9.38;;;5.68;;
68886;SDS011;55925;51.764;6.402;2023-05-07T12:07:10;10.85;;;6.63;;
68886;SDS011;55925;51.764;6.402;2023-05-07T12:12:03;8.52;;;5.55;;
68886;SDS011;55925;51.764;6.402;2023-05-07T12:14:30;11.00;;;5.93;;
68886;SDS011;55925;51.764;6.402;2023-05-07T12:16:56;9.20;;;5.65;;
68886;SDS011;55925;51.764;6.402;2023-05-07T12:19:22;9.90;;;6.30;;
68886;SDS011;55925;51.764;6.402;2023-05-07T12:21:48;10.00;;;5.75;;
68886;SDS011;55925;51.764;6.402;2023-05-07T12:24:14;10.18;;;5.72;;
68886;SDS011;55925;51.764;6.402;2023-05-07T12:26:40;9.77;;;5.95;;
68886;SDS011;55925;51.764;6.402;2023-05-07T12:29:06;8.68;;;5.80;;
68886;SDS011;55925;51.764;6.402;2023-05-07T12:31:33;9.82;;;6.05;;
68886;SDS011;55925;51.764;6.402;2023-05-07T12:33:59;10.02;;;6.07;;
68886;SDS011;55925;51.764;6.402;2023-05-07T12:36:25;7.47;;;5.00;;
68886;SDS011;55925;51.764;6.402;2023-05-07T12:38:51;8.95;;;5.50;;
68886;SDS011;55925;51.764;6.402;2023-05-07T12:41:17;10.57;;;6.13;;
68886;SDS011;55925;51.764;6.402;2023-05-07T12:43:44;8.65;;;5.30;;
68886;SDS011;55925;51.764;6.402;2023-05-07T12:46:11;8.35;;;5.35;;
68886;SDS011;55925;51.764;6.402;2023-05-07T12:48:43;9.35;;;6.28;;
68886;SDS011;55925;51.764;6.402;2023-05-07T12:51:11;10.57;;;5.50;;
68886;SDS011;55925;51.764;6.402;2023-05-07T12:53:41;9.82;;;5.68;;
68886;SDS011;55925;51.764;6.402;2023-05-07T12:56:08;10.55;;;6.00;;
68886;SDS011;55925;51.764;6.402;2023-05-07T12:58:34;9.55;;;4.97;;
68886;SDS011;55925;51.764;6.402;2023-05-07T13:01:01;10.95;;;5.15;;
68886;SDS011;55925;51.764;6.402;2023-05-07T13:03:30;8.00;;;5.25;;
68886;SDS011;55925;51.764;6.402;2023-05-07T13:05:57;7.38;;;4.63;;
68886;SDS011;55925;51.764;6.402;2023-05-07T13:08:28;10.20;;;5.10;;
68886;SDS011;55925;51.764;6.402;2023-05-07T13:10:55;8.27;;;4.70;;
68886;SDS011;55925;51.764;6.402;2023-05-07T13:13:21;8.45;;;5.00;;
68886;SDS011;55925;51.764;6.402;2023-05-07T13:15:47;10.55;;;5.00;;
68886;SDS011;55925;51.764;6.402;2023-05-07T13:18:13;7.78;;;4.82;;
68886;SDS011;55925;51.764;6.402;2023-05-07T13:20:39;9.23;;;5.07;;
68886;SDS011;55925;51.764;6.402;2023-05-07T13:23:05;12.25;;;8.63;;
68886;SDS011;55925;51.764;6.402;2023-05-07T13:25:31;13.40;;;7.40;;
68886;SDS011;55925;51.764;6.402;2023-05-07T13:27:57;8.63;;;4.78;;
68886;SDS011;55925;51.764;6.402;2023-05-07T13:30:23;6.93;;;4.20;;
68886;SDS011;55925;51.764;6.402;2023-05-07T13:32:50;8.02;;;4.47;;
68886;SDS011;55925;51.764;6.402;2023-05-07T13:35:17;6.28;;;3.72;;
68886;SDS011;55925;51.764;6.402;2023-05-07T13:37:43;10.82;;;5.22;;
68886;SDS011;55925;51.764;6.402;2023-05-07T13:40:09;9.50;;;4.28;;
68886;SDS011;55925;51.764;6.402;2023-05-07T13:42:35;7.90;;;4.18;;
68886;SDS011;55925;51.764;6.402;2023-05-07T13:45:01;9.10;;;3.90;;
68886;SDS011;55925;51.764;6.402;2023-05-07T13:47:30;8.18;;;4.18;;
68886;SDS011;55925;51.764;6.402;2023-05-07T13:49:56;7.18;;;4.43;;
68886;SDS011;55925;51.764;6.402;2023-05-07T13:52:22;7.53;;;4.13;;
68886;SDS011;55925;51.764;6.402;2023-05-07T13:54:48;8.27;;;4.25;;
68886;SDS011;55925;51.764;6.402;2023-05-07T13:57:14;8.95;;;4.50;;
68886;SDS011;55925;51.764;6.402;2023-05-07T13:59:40;10.45;;;5.60;;
68886;SDS011;55925;51.764;6.402;2023-05-07T14:02:06;14.45;;;6.47;;
68886;SDS011;55925;51.764;6.402;2023-05-07T14:04:33;8.70;;;4.85;;
68886;SDS011;55925;51.764;6.402;2023-05-07T14:07:00;9.20;;;5.38;;
68886;SDS011;55925;51.764;6.402;2023-05-07T14:09:25;8.70;;;5.80;;
68886;SDS011;55925;51.764;6.402;2023-05-07T14:11:51;8.45;;;4.57;;
68886;SDS011;55925;51.764;6.402;2023-05-07T14:14:18;25.55;;;15.38;;
68886;SDS011;55925;51.764;6.402;2023-05-07T14:16:44;8.82;;;5.72;;
68886;SDS011;55925;51.764;6.402;2023-05-07T14:19:10;10.70;;;5.30;;
68886;SDS011;55925;51.764;6.402;2023-05-07T14:21:36;9.35;;;5.13;;
68886;SDS011;55925;51.764;6.402;2023-05-07T14:24:02;11.48;;;7.18;;
68886;SDS011;55925;51.764;6.402;2023-05-07T14:26:28;10.73;;;7.03;;
68886;SDS011;55925;51.764;6.402;2023-05-07T14:28:56;11.45;;;8.15;;
68886;SDS011;55925;51.764;6.402;2023-05-07T14:31:23;10.77;;;6.90;;
68886;SDS011;55925;51.764;6.402;2023-05-07T14:33:49;9.90;;;5.40;;
68886;SDS011;55925;51.764;6.402;2023-05-07T14:36:15;9.68;;;6.13;;
68886;SDS011;55925;51.764;6.402;2023-05-07T14:38:42;11.25;;;7.10;;
68886;SDS011;55925;51.764;6.402;2023-05-07T14:41:08;13.43;;;8.10;;
68886;SDS011;55925;51.764;6.402;2023-05-07T14:43:34;21.27;;;12.93;;
68886;SDS011;55925;51.764;6.402;2023-05-07T14:46:00;17.77;;;9.75;;
68886;SDS011;55925;51.764;6.402;2023-05-07T14:48:26;12.35;;;8.15;;
68886;SDS011;55925;51.764;6.402;2023-05-07T14:50:52;11.07;;;5.78;;
68886;SDS011;55925;51.764;6.402;2023-05-07T14:53:18;9.43;;;5.55;;